Time;durP1;ratioP1;P1;durP2;ratioP2;P2;SDS_P1;SDS_P2;PMS_P1;PMS_P2;Temp;Humidity;BMP_temperature;BMP_pressure;BME280_temperature;BME280_humidity;BME280_pressure;Samples;Min_cycle;Max_cycle;Signal;HPM_P1;HPM_P2
2022/05/05 00:01:20;;;;;;;3.33;1.90;;;;;;;;;;4994391;28;20049;-77
2022/05/05 00:03:46;;;;;;;4.30;2.40;;;;;;;;;;4994950;28;20460;-77
2022/05/05 00:06:11;;;;;;;4.22;2.05;;;;;;;;;;5027365;28;20515;-77
2022/05/05 00:08:37;;;;;;;3.20;1.67;;;;;;;;;;5010663;28;20034;-77
2022/05/05 00:16:31;;;;;;;4.32;2.00;;;;;;;;;;5024976;28;20042;-77
2022/05/05 00:18:56;;;;;;;3.83;2.17;;;;;;;;;;5027013;28;20084;-77
2022/05/05 00:21:22;;;;;;;5.28;2.03;;;;;;;;;;5026691;28;20049;-77
2022/05/05 00:23:48;;;;;;;3.85;1.70;;;;;;;;;;5011240;28;20038;-77
2022/05/05 00:26:13;;;;;;;3.95;1.90;;;;;;;;;;5026840;28;20393;-77
2022/05/05 00:28:39;;;;;;;5.25;1.98;;;;;;;;;;5028045;28;20519;-77
2022/05/05 00:31:04;;;;;;;4.05;2.20;;;;;;;;;;5047641;28;20460;-77
2022/05/05 00:33:30;;;;;;;3.50;1.77;;;;;;;;;;5031287;28;20042;-77
2022/05/05 00:35:56;;;;;;;3.75;2.08;;;;;;;;;;5030660;28;20030;-77
2022/05/05 00:38:21;;;;;;;3.97;2.00;;;;;;;;;;5014301;28;20033;-77
2022/05/05 00:40:47;;;;;;;4.22;2.58;;;;;;;;;;5027272;28;20038;-77
2022/05/05 00:43:12;;;;;;;5.50;2.00;;;;;;;;;;5011001;28;20038;-77
2022/05/05 00:45:38;;;;;;;5.78;2.38;;;;;;;;;;5011174;28;20038;-77
2022/05/05 00:48:07;;;;;;;4.63;2.33;;;;;;;;;;4994547;28;20046;-77
2022/05/05 00:50:33;;;;;;;6.03;2.45;;;;;;;;;;4993749;28;20046;-77
2022/05/05 00:52:59;;;;;;;3.55;2.30;;;;;;;;;;5011277;28;20484;-77
2022/05/05 00:55:24;;;;;;;4.93;2.92;;;;;;;;;;5027310;28;20125;-77
2022/05/05 00:57:50;;;;;;;4.25;2.25;;;;;;;;;;4994449;28;20038;-77
2022/05/05 01:00:16;;;;;;;3.60;2.15;;;;;;;;;;5011360;28;20042;-77
2022/05/05 01:02:41;;;;;;;11.07;2.45;;;;;;;;;;5000435;28;20037;-77
2022/05/05 01:05:07;;;;;;;4.25;2.20;;;;;;;;;;4981393;28;20408;-77
2022/05/05 01:07:33;;;;;;;3.90;2.50;;;;;;;;;;4997651;28;20041;-76
2022/05/05 01:09:59;;;;;;;3.38;2.42;;;;;;;;;;5013515;28;20034;-76
2022/05/05 01:12:29;;;;;;;3.78;2.15;;;;;;;;;;5013861;28;20496;-77
2022/05/05 01:14:55;;;;;;;3.13;2.22;;;;;;;;;;5014033;28;20416;-77
2022/05/05 01:17:21;;;;;;;5.43;2.22;;;;;;;;;;5013678;28;20125;-77
2022/05/05 01:19:47;;;;;;;4.30;2.55;;;;;;;;;;5013587;28;20041;-77
2022/05/05 01:22:15;;;;;;;4.53;2.42;;;;;;;;;;5013814;28;20034;-77
2022/05/05 01:30:08;;;;;;;4.97;2.33;;;;;;;;;;5013689;28;20045;-77
2022/05/05 01:32:34;;;;;;;5.07;2.30;;;;;;;;;;5013817;28;20026;-77
2022/05/05 01:34:59;;;;;;;3.35;2.20;;;;;;;;;;4996922;28;20038;-77
2022/05/05 01:37:25;;;;;;;3.80;1.95;;;;;;;;;;4996869;28;20045;-77
2022/05/05 01:39:51;;;;;;;4.95;2.92;;;;;;;;;;4995694;28;20041;-76
2022/05/05 01:42:17;;;;;;;3.88;2.05;;;;;;;;;;4995990;28;20065;-77
2022/05/05 01:44:42;;;;;;;3.58;2.42;;;;;;;;;;5013504;28;20042;-77
2022/05/05 01:47:07;;;;;;;5.82;2.50;;;;;;;;;;5012654;28;20419;-77
2022/05/05 01:49:33;;;;;;;5.35;2.35;;;;;;;;;;5029555;28;20475;-77
2022/05/05 01:51:59;;;;;;;4.65;2.58;;;;;;;;;;5013322;28;20519;-77
2022/05/05 01:54:24;;;;;;;4.60;2.72;;;;;;;;;;5013579;28;20065;-77
2022/05/05 01:56:50;;;;;;;3.75;2.28;;;;;;;;;;5012797;28;20061;-77
2022/05/05 01:59:15;;;;;;;4.80;2.33;;;;;;;;;;5013345;28;20042;-77
2022/05/05 02:01:41;;;;;;;3.83;2.22;;;;;;;;;;4996423;28;20408;-77
2022/05/05 02:04:06;;;;;;;5.10;2.50;;;;;;;;;;5047006;28;20048;-77
2022/05/05 02:06:32;;;;;;;4.90;2.58;;;;;;;;;;5000038;28;20411;-77
2022/05/05 02:08:58;;;;;;;4.55;2.53;;;;;;;;;;5015814;28;20041;-77
2022/05/05 02:11:25;;;;;;;4.07;2.53;;;;;;;;;;5016351;28;20487;-77
2022/05/05 02:13:50;;;;;;;4.32;2.75;;;;;;;;;;5016398;28;20044;-77
2022/05/05 02:16:15;;;;;;;4.53;2.80;;;;;;;;;;4999877;28;20037;-77
2022/05/05 02:18:41;;;;;;;6.75;3.17;;;;;;;;;;4999793;28;20065;-77
2022/05/05 02:21:06;;;;;;;4.55;2.53;;;;;;;;;;5016062;28;20131;-77
2022/05/05 02:23:32;;;;;;;6.35;2.45;;;;;;;;;;5015986;28;20102;-76
2022/05/05 02:25:57;;;;;;;4.60;2.72;;;;;;;;;;5031944;28;20044;-77
2022/05/05 02:28:23;;;;;;;5.45;2.38;;;;;;;;;;5015912;28;20389;-77
2022/05/05 02:30:48;;;;;;;4.03;2.65;;;;;;;;;;5031955;28;20030;-77
2022/05/05 02:33:14;;;;;;;5.35;2.88;;;;;;;;;;4999269;28;20416;-77
2022/05/05 02:35:39;;;;;;;3.30;2.13;;;;;;;;;;4989643;28;20416;-77
2022/05/05 02:40:48;;;;;;;3.35;2.55;;;;;;;;;;5025151;28;20030;-77
2022/05/05 02:43:14;;;;;;;4.50;2.70;;;;;;;;;;5008691;28;20050;-77
2022/05/05 02:45:40;;;;;;;5.60;2.97;;;;;;;;;;4992649;28;20440;-77
2022/05/05 02:48:06;;;;;;;6.32;2.60;;;;;;;;;;5008586;28;20042;-76
2022/05/05 02:50:31;;;;;;;3.45;2.10;;;;;;;;;;5025269;28;20038;-77
2022/05/05 02:52:57;;;;;;;5.28;2.90;;;;;;;;;;4992021;28;20038;-77
2022/05/05 02:55:23;;;;;;;5.15;2.78;;;;;;;;;;5007783;28;20042;-77
2022/05/05 02:57:48;;;;;;;6.75;2.80;;;;;;;;;;4992171;28;20038;-77
2022/05/05 03:00:14;;;;;;;4.07;2.83;;;;;;;;;;5025144;28;20031;-77
2022/05/05 03:02:41;;;;;;;4.90;2.60;;;;;;;;;;5003537;28;20109;-77
2022/05/05 03:05:08;;;;;;;5.22;2.83;;;;;;;;;;4983150;28;20034;-77
2022/05/05 03:07:34;;;;;;;4.60;2.70;;;;;;;;;;5015672;28;20044;-77
2022/05/05 03:10:00;;;;;;;3.55;2.35;;;;;;;;;;4998342;28;20033;-77
2022/05/05 03:12:25;;;;;;;3.90;2.95;;;;;;;;;;5031806;28;20029;-77
2022/05/05 03:14:51;;;;;;;4.45;2.40;;;;;;;;;;5014869;28;20057;-77
2022/05/05 03:17:16;;;;;;;4.60;2.85;;;;;;;;;;5014658;28;20128;-77
2022/05/05 03:19:41;;;;;;;4.53;2.30;;;;;;;;;;5014744;28;20094;-77
2022/05/05 03:22:07;;;;;;;4.10;3.33;;;;;;;;;;4998759;28;20480;-77
2022/05/05 03:24:32;;;;;;;5.28;2.55;;;;;;;;;;5014741;28;20037;-77
2022/05/05 03:27:00;;;;;;;4.10;2.30;;;;;;;;;;5015030;28;20442;-77
2022/05/05 03:29:26;;;;;;;5.10;2.75;;;;;;;;;;5008319;28;20030;-77
2022/05/05 03:31:51;;;;;;;4.35;2.75;;;;;;;;;;5011388;28;20041;-77
2022/05/05 03:34:17;;;;;;;4.35;2.53;;;;;;;;;;5011483;28;20099;-77
2022/05/05 03:36:42;;;;;;;4.60;2.65;;;;;;;;;;5011172;28;20076;-77
2022/05/05 03:39:08;;;;;;;4.95;2.65;;;;;;;;;;5010960;28;20026;-77
2022/05/05 03:41:33;;;;;;;5.30;2.70;;;;;;;;;;4978699;28;20393;-77
2022/05/05 03:43:58;;;;;;;3.88;2.58;;;;;;;;;;4978436;28;20068;-77
2022/05/05 03:46:24;;;;;;;3.40;2.20;;;;;;;;;;4994695;28;20038;-77
2022/05/05 03:48:50;;;;;;;4.03;2.38;;;;;;;;;;4994513;28;20113;-77
2022/05/05 03:51:16;;;;;;;3.85;2.65;;;;;;;;;;5010989;28;20423;-77
2022/05/05 03:53:41;;;;;;;3.70;2.40;;;;;;;;;;4978649;28;20073;-77
2022/05/05 03:56:07;;;;;;;3.88;2.58;;;;;;;;;;4994467;28;20048;-77
2022/05/05 03:58:32;;;;;;;4.15;2.58;;;;;;;;;;4994415;28;20412;-77
2022/05/05 04:00:58;;;;;;;3.95;2.95;;;;;;;;;;4978185;28;20431;-77
2022/05/05 04:03:32;;;;;;;5.70;2.72;;;;;;;;;;4977515;28;20069;-77
2022/05/05 04:06:02;;;;;;;5.57;2.80;;;;;;;;;;5010964;28;20049;-77
2022/05/05 04:08:28;;;;;;;4.40;2.60;;;;;;;;;;5027918;28;20033;-77
2022/05/05 04:10:53;;;;;;;5.38;2.65;;;;;;;;;;5026868;28;20038;-76
2022/05/05 04:13:20;;;;;;;4.18;3.08;;;;;;;;;;4994167;28;20049;-77
2022/05/05 04:15:46;;;;;;;5.93;2.97;;;;;;;;;;5027088;28;20037;-77
2022/05/05 04:18:11;;;;;;;5.07;2.70;;;;;;;;;;5026961;28;20033;-77
2022/05/05 04:20:37;;;;;;;3.45;2.75;;;;;;;;;;5027203;28;20095;-77
2022/05/05 04:23:03;;;;;;;4.70;3.17;;;;;;;;;;5027148;28;20041;-77
2022/05/05 04:25:28;;;;;;;4.82;2.60;;;;;;;;;;5010665;28;20562;-77
2022/05/05 04:27:54;;;;;;;5.90;3.50;;;;;;;;;;5010304;28;20045;-77
2022/05/05 04:30:19;;;;;;;4.00;2.75;;;;;;;;;;5010404;28;20046;-77
2022/05/05 04:32:45;;;;;;;6.57;3.17;;;;;;;;;;5027117;28;20064;-77
2022/05/05 04:35:11;;;;;;;4.53;3.03;;;;;;;;;;5010658;28;20042;-77
2022/05/05 04:37:36;;;;;;;4.15;2.58;;;;;;;;;;5010729;28;20037;-77
2022/05/05 04:40:02;;;;;;;4.20;2.30;;;;;;;;;;5010185;28;20038;-77
2022/05/05 04:42:27;;;;;;;4.07;2.65;;;;;;;;;;5010353;28;20116;-77
2022/05/05 04:44:53;;;;;;;3.67;2.65;;;;;;;;;;4994352;28;20080;-77
2022/05/05 04:47:18;;;;;;;4.70;2.80;;;;;;;;;;4978001;28;20033;-77
2022/05/05 04:49:44;;;;;;;4.47;2.70;;;;;;;;;;4993871;28;20520;-77
2022/05/05 04:52:09;;;;;;;3.92;2.35;;;;;;;;;;4994398;28;20237;-77
2022/05/05 04:54:35;;;;;;;4.25;3.42;;;;;;;;;;4977845;28;20412;-77
2022/05/05 04:57:00;;;;;;;3.33;2.53;;;;;;;;;;4993537;28;20532;-76
2022/05/05 04:59:27;;;;;;;5.13;2.78;;;;;;;;;;4993837;28;20582;-77
2022/05/05 05:01:52;;;;;;;4.78;2.65;;;;;;;;;;4978033;28;20045;-76
2022/05/05 05:04:18;;;;;;;22.90;5.95;;;;;;;;;;5010476;28;20424;-77
2022/05/05 05:06:43;;;;;;;21.10;4.78;;;;;;;;;;5026807;28;20080;-77
2022/05/05 05:09:08;;;;;;;11.25;4.63;;;;;;;;;;5026093;28;20408;-76
2022/05/05 05:11:34;;;;;;;12.38;4.00;;;;;;;;;;5026283;28;20396;-76
2022/05/05 05:13:59;;;;;;;14.55;3.63;;;;;;;;;;5026617;28;20042;-76
2022/05/05 05:16:25;;;;;;;14.57;3.60;;;;;;;;;;5030485;28;20038;-76
2022/05/05 05:18:53;;;;;;;10.52;3.40;;;;;;;;;;5045856;28;20037;-76
2022/05/05 05:21:19;;;;;;;9.32;3.65;;;;;;;;;;5014031;28;20096;-76
2022/05/05 05:23:45;;;;;;;5.68;2.85;;;;;;;;;;5030054;28;20034;-77
2022/05/05 05:26:10;;;;;;;8.82;3.38;;;;;;;;;;5013261;28;20038;-77
2022/05/05 05:28:36;;;;;;;8.65;3.42;;;;;;;;;;5030175;28;20068;-78
2022/05/05 05:31:01;;;;;;;7.50;3.58;;;;;;;;;;5029384;28;20026;-77
2022/05/05 05:33:27;;;;;;;6.32;3.42;;;;;;;;;;5013845;28;20046;-77
2022/05/05 05:35:52;;;;;;;5.35;3.05;;;;;;;;;;5013597;28;20065;-77
2022/05/05 05:38:19;;;;;;;8.27;3.88;;;;;;;;;;5013681;28;20060;-78
2022/05/05 05:40:45;;;;;;;7.32;3.35;;;;;;;;;;5026090;28;20038;-77
2022/05/05 05:43:10;;;;;;;5.97;3.30;;;;;;;;;;5006210;28;20461;-77
2022/05/05 05:45:36;;;;;;;12.82;3.63;;;;;;;;;;5009821;28;20042;-77
2022/05/05 05:48:01;;;;;;;4.75;2.85;;;;;;;;;;4993603;28;20416;-77
2022/05/05 05:50:28;;;;;;;7.18;3.33;;;;;;;;;;5009954;28;20048;-77
2022/05/05 05:52:54;;;;;;;7.22;3.08;;;;;;;;;;5009728;28;20460;-78
2022/05/05 05:55:20;;;;;;;8.02;3.28;;;;;;;;;;5009137;28;20065;-77
2022/05/05 05:57:45;;;;;;;7.07;3.80;;;;;;;;;;5009994;28;20113;-77
2022/05/05 06:00:11;;;;;;;7.03;3.33;;;;;;;;;;5009695;28;20026;-77
2022/05/05 06:05:21;;;;;;;7.88;3.63;;;;;;;;;;5013012;28;20052;-77
2022/05/05 06:07:46;;;;;;;9.73;3.83;;;;;;;;;;5029139;28;20042;-77
2022/05/05 06:10:12;;;;;;;8.73;3.17;;;;;;;;;;5012061;28;20100;-77
2022/05/05 06:12:38;;;;;;;8.00;3.67;;;;;;;;;;4994097;28;20097;-77
2022/05/05 06:15:04;;;;;;;9.93;3.83;;;;;;;;;;4993065;28;20104;-77
2022/05/05 06:17:29;;;;;;;17.63;5.00;;;;;;;;;;4976947;28;20427;-78
2022/05/05 06:19:54;;;;;;;13.10;4.80;;;;;;;;;;4992613;28;20046;-77
2022/05/05 06:22:20;;;;;;;14.77;4.50;;;;;;;;;;4976252;28;20038;-77
2022/05/05 06:24:45;;;;;;;12.07;4.30;;;;;;;;;;4992135;28;20058;-79
2022/05/05 06:27:11;;;;;;;8.30;3.83;;;;;;;;;;4975948;28;20057;-78
2022/05/05 06:29:36;;;;;;;7.28;3.47;;;;;;;;;;5009040;28;20394;-79
2022/05/05 06:32:02;;;;;;;12.65;4.07;;;;;;;;;;4992637;28;20038;-78
2022/05/05 06:34:28;;;;;;;9.52;4.07;;;;;;;;;;4992441;28;20408;-77
2022/05/05 06:36:54;;;;;;;8.15;3.72;;;;;;;;;;5012865;28;20041;-77
2022/05/05 06:39:19;;;;;;;12.95;4.25;;;;;;;;;;4994878;28;20041;-77
2022/05/05 06:41:45;;;;;;;9.10;3.63;;;;;;;;;;4995447;28;20037;-78
2022/05/05 06:44:10;;;;;;;10.43;3.80;;;;;;;;;;4994799;28;20061;-77
2022/05/05 06:46:36;;;;;;;9.23;3.88;;;;;;;;;;4994468;28;20140;-77
2022/05/05 06:49:01;;;;;;;11.90;3.97;;;;;;;;;;4995135;28;20389;-77
2022/05/05 06:51:27;;;;;;;8.20;3.10;;;;;;;;;;4979345;28;20419;-77
2022/05/05 06:53:52;;;;;;;12.07;3.63;;;;;;;;;;4978988;28;20045;-77
2022/05/05 06:56:18;;;;;;;7.40;3.47;;;;;;;;;;4995307;28;20041;-77
2022/05/05 06:58:43;;;;;;;8.18;3.33;;;;;;;;;;4995155;28;20037;-77
2022/05/05 07:05:23;;;;;;;6.15;3.45;;;;;;;;;;4996744;28;20049;-77
2022/05/05 07:06:38;;;;;;;5.30;3.08;;;;;;;;;;5008458;28;20542;-77
2022/05/05 07:11:48;;;;;;;7.68;3.10;;;;;;;;;;5024089;28;20049;-77
2022/05/05 07:14:13;;;;;;;5.07;3.35;;;;;;;;;;5011133;28;20400;-77
2022/05/05 07:16:38;;;;;;;6.15;3.25;;;;;;;;;;4995188;28;20455;-77
2022/05/05 07:19:04;;;;;;;6.18;3.30;;;;;;;;;;5026523;28;20508;-77
2022/05/05 07:21:30;;;;;;;9.65;3.35;;;;;;;;;;5010418;28;20029;-78
2022/05/05 07:23:59;;;;;;;6.28;3.40;;;;;;;;;;5026180;28;20084;-78
2022/05/05 07:26:25;;;;;;;5.38;3.33;;;;;;;;;;5027201;28;20041;-78
2022/05/05 07:28:51;;;;;;;7.07;4.00;;;;;;;;;;5028346;28;20046;-78
2022/05/05 07:31:18;;;;;;;9.00;4.10;;;;;;;;;;5011097;28;20083;-78
2022/05/05 07:33:43;;;;;;;6.60;4.72;;;;;;;;;;5011143;28;20504;-78
2022/05/05 07:36:09;;;;;;;12.63;6.82;;;;;;;;;;5010968;28;20073;-78
2022/05/05 07:38:35;;;;;;;19.00;10.95;;;;;;;;;;5026546;28;20163;-78
2022/05/05 07:41:00;;;;;;;17.65;10.85;;;;;;;;;;5009462;28;20037;-78
2022/05/05 07:43:26;;;;;;;22.52;15.05;;;;;;;;;;5010423;28;20059;-78
2022/05/05 07:45:51;;;;;;;20.25;13.23;;;;;;;;;;5027373;28;20033;-78
2022/05/05 07:48:19;;;;;;;25.92;17.88;;;;;;;;;;5010879;28;20045;-78
2022/05/05 07:50:46;;;;;;;27.75;17.40;;;;;;;;;;5043297;28;20427;-78
2022/05/05 07:53:12;;;;;;;27.95;18.35;;;;;;;;;;5011334;28;20050;-78
2022/05/05 07:55:38;;;;;;;29.42;20.55;;;;;;;;;;5010822;28;20507;-78
2022/05/05 07:58:03;;;;;;;29.98;19.95;;;;;;;;;;5011027;28;20145;-78
2022/05/05 08:00:28;;;;;;;26.73;19.77;;;;;;;;;;5011101;28;20030;-78
2022/05/05 08:02:54;;;;;;;28.08;19.92;;;;;;;;;;5027169;28;20092;-78
2022/05/05 08:05:19;;;;;;;28.55;20.17;;;;;;;;;;5010613;28;20042;-78
2022/05/05 08:07:47;;;;;;;31.08;20.75;;;;;;;;;;5026963;28;20033;-78
2022/05/05 08:10:12;;;;;;;30.98;20.75;;;;;;;;;;4994337;28;20026;-78
2022/05/05 08:12:38;;;;;;;26.55;19.58;;;;;;;;;;5011029;28;20068;-78
2022/05/05 08:15:05;;;;;;;24.88;18.25;;;;;;;;;;5010764;28;20033;-78
2022/05/05 08:17:32;;;;;;;25.77;17.58;;;;;;;;;;5026532;28;20076;-78
2022/05/05 08:19:57;;;;;;;25.00;17.08;;;;;;;;;;5009653;28;20104;-78
2022/05/05 08:22:22;;;;;;;23.67;15.50;;;;;;;;;;5026458;28;20502;-78
2022/05/05 08:30:16;;;;;;;19.48;14.15;;;;;;;;;;5024662;28;20037;-77
2022/05/05 08:32:41;;;;;;;19.90;13.57;;;;;;;;;;5010738;28;20033;-78
2022/05/05 08:35:06;;;;;;;20.25;13.57;;;;;;;;;;5010173;28;20034;-78
2022/05/05 08:37:32;;;;;;;19.80;12.68;;;;;;;;;;5026732;28;20033;-78
2022/05/05 08:39:57;;;;;;;17.42;11.75;;;;;;;;;;5022992;28;20037;-78
2022/05/05 08:42:24;;;;;;;18.77;11.27;;;;;;;;;;4974764;28;20046;-78
2022/05/05 08:44:50;;;;;;;17.80;10.50;;;;;;;;;;4975251;28;20041;-78
2022/05/05 08:47:16;;;;;;;16.65;10.50;;;;;;;;;;4990124;28;20042;-78
2022/05/05 08:49:41;;;;;;;14.98;9.20;;;;;;;;;;4991448;28;20038;-78
2022/05/05 08:52:08;;;;;;;12.68;8.88;;;;;;;;;;4994631;28;20054;-78
2022/05/05 08:54:33;;;;;;;14.15;9.32;;;;;;;;;;4994909;28;20037;-78
2022/05/05 08:56:59;;;;;;;11.65;8.75;;;;;;;;;;4994741;28;20053;-78
2022/05/05 08:59:25;;;;;;;15.52;10.77;;;;;;;;;;4994746;28;20489;-78
2022/05/05 09:01:53;;;;;;;20.67;13.88;;;;;;;;;;4978522;28;20448;-78
2022/05/05 09:04:20;;;;;;;31.60;23.33;;;;;;;;;;5030379;28;20034;-78
2022/05/05 09:06:51;;;;;;;59.67;41.92;;;;;;;;;;5013740;28;20432;-78
2022/05/05 09:09:22;;;;;;;53.00;39.22;;;;;;;;;;5013560;28;20037;-78
2022/05/05 09:12:13;;;;;;;50.97;35.77;;;;;;;;;;5014113;28;20125;-77
2022/05/05 09:14:49;;;;;;;40.75;28.27;;;;;;;;;;5028896;28;20033;-78
2022/05/05 09:17:19;;;;;;;36.55;26.92;;;;;;;;;;4997025;28;20037;-78
2022/05/05 09:19:57;;;;;;;34.83;24.55;;;;;;;;;;5014352;28;20038;-78
2022/05/05 09:22:24;;;;;;;25.77;17.60;;;;;;;;;;5031664;28;20030;-78
2022/05/05 09:24:51;;;;;;;25.00;17.65;;;;;;;;;;5013913;28;20054;-78
2022/05/05 09:27:27;;;;;;;25.73;17.17;;;;;;;;;;5013627;28;20057;-77
2022/05/05 09:30:09;;;;;;;21.10;15.68;;;;;;;;;;5015020;28;20128;-78
2022/05/05 09:32:38;;;;;;;;;;;;;;;;;;5013919;28;20034;-78
2022/05/05 09:35:08;;;;;;;17.48;12.93;;;;;;;;;;5030069;28;19910;-78
2022/05/05 09:37:34;;;;;;;17.85;11.32;;;;;;;;;;5030056;28;20104;-78
2022/05/05 09:40:00;;;;;;;14.60;11.40;;;;;;;;;;4993442;28;20493;-78
2022/05/05 09:42:35;;;;;;;14.55;10.55;;;;;;;;;;4977813;28;20121;-78
2022/05/05 09:45:13;;;;;;;13.48;10.13;;;;;;;;;;4993727;28;20042;-78
2022/05/05 09:47:39;;;;;;;24.85;16.73;;;;;;;;;;4993786;28;20124;-77
2022/05/05 09:50:06;;;;;;;31.13;21.17;;;;;;;;;;5009653;28;20034;-78
2022/05/05 09:58:03;;;;;;;34.88;25.40;;;;;;;;;;4982040;28;20034;-78
2022/05/05 10:05:45;;;;;;;33.65;23.63;;;;;;;;;;5027343;28;20026;-78
2022/05/05 10:08:10;;;;;;;35.13;22.63;;;;;;;;;;4989461;28;20092;-78
2022/05/05 10:10:37;;;;;;;29.40;20.58;;;;;;;;;;5012267;28;20038;-78
2022/05/05 10:13:03;;;;;;;27.55;19.35;;;;;;;;;;5012308;28;20473;-78
2022/05/05 10:15:29;;;;;;;28.45;19.50;;;;;;;;;;5011965;28;20413;-78
2022/05/05 10:17:54;;;;;;;27.70;18.85;;;;;;;;;;4979492;28;20073;-78
2022/05/05 10:20:19;;;;;;;26.45;17.58;;;;;;;;;;4979527;28;20083;-78
2022/05/05 10:23:02;;;;;;;20.83;16.30;;;;;;;;;;4979484;28;20033;-78
2022/05/05 10:25:27;;;;;;;22.30;15.52;;;;;;;;;;5017934;28;20034;-78
2022/05/05 10:27:55;;;;;;;23.60;15.35;;;;;;;;;;4979665;28;20420;-78
2022/05/05 10:30:36;;;;;;;20.75;14.48;;;;;;;;;;4979844;28;20026;-78
2022/05/05 10:33:08;;;;;;;20.10;14.65;;;;;;;;;;5009802;28;20030;-78
2022/05/05 10:35:47;;;;;;;19.67;14.40;;;;;;;;;;4996580;28;20480;-78
2022/05/05 10:38:41;;;;;;;18.85;13.93;;;;;;;;;;5012643;28;20876;-78
2022/05/05 10:41:39;;;;;;;19.35;12.40;;;;;;;;;;4992679;28;20034;-78
2022/05/05 10:44:16;;;;;;;17.77;12.60;;;;;;;;;;5008671;28;20034;-78
2022/05/05 10:46:51;;;;;;;18.15;13.55;;;;;;;;;;5025900;28;20508;-78
2022/05/05 10:49:36;;;;;;;15.95;12.00;;;;;;;;;;4993443;28;20509;-78
2022/05/05 10:52:10;;;;;;;16.67;11.90;;;;;;;;;;5025023;28;20042;-78
2022/05/05 10:54:46;;;;;;;16.13;12.07;;;;;;;;;;4993975;28;20034;-78
2022/05/05 10:57:27;;;;;;;18.10;11.80;;;;;;;;;;5008805;28;20037;-78
2022/05/05 11:00:11;;;;;;;15.73;10.70;;;;;;;;;;4993195;28;20078;-78
2022/05/05 11:02:38;;;;;;;15.82;11.05;;;;;;;;;;5029141;28;20026;-78
2022/05/05 11:05:23;;;;;;;13.23;10.02;;;;;;;;;;5011804;28;20045;-78
2022/05/05 11:07:51;;;;;;;17.50;10.20;;;;;;;;;;5027777;28;20045;-75
2022/05/05 11:10:48;;;;;;;13.15;9.45;;;;;;;;;;5043552;28;20504;-78
2022/05/05 11:13:41;;;;;;;15.23;10.10;;;;;;;;;;5011160;28;20066;-78
2022/05/05 11:22:28;;;;;;;12.30;9.20;;;;;;;;;;5021873;28;20046;-77
2022/05/05 11:24:54;;;;;;;17.77;9.00;;;;;;;;;;5027435;28;20033;-78
2022/05/05 11:27:23;;;;;;;12.70;9.43;;;;;;;;;;4993935;28;20403;-78
2022/05/05 11:29:50;;;;;;;14.45;8.75;;;;;;;;;;4994543;28;20021;-78
2022/05/05 11:32:16;;;;;;;13.45;8.25;;;;;;;;;;4994766;28;20037;-78
2022/05/05 11:34:41;;;;;;;35.72;10.10;;;;;;;;;;4993261;28;20030;-79
2022/05/05 11:37:07;;;;;;;16.27;8.90;;;;;;;;;;4994302;28;20038;-79
2022/05/05 11:39:34;;;;;;;18.70;8.68;;;;;;;;;;4977562;28;20061;-78
2022/05/05 11:42:01;;;;;;;17.25;9.07;;;;;;;;;;4989156;28;20448;-78
2022/05/05 11:44:27;;;;;;;14.77;7.60;;;;;;;;;;4994687;28;20471;-79
2022/05/05 11:46:53;;;;;;;11.35;8.18;;;;;;;;;;5010146;28;20046;-79
2022/05/05 11:49:19;;;;;;;14.20;8.23;;;;;;;;;;4977965;28;20041;-79
2022/05/05 11:51:45;;;;;;;13.10;8.05;;;;;;;;;;5008578;28;20038;-79
2022/05/05 11:54:14;;;;;;;13.40;7.90;;;;;;;;;;4961999;28;20404;-79
2022/05/05 11:56:44;;;;;;;13.63;7.90;;;;;;;;;;4993989;28;20034;-79
2022/05/05 12:01:58;;;;;;;13.70;7.78;;;;;;;;;;5008549;28;20038;-79
2022/05/05 12:04:24;;;;;;;15.02;7.45;;;;;;;;;;4978036;28;20109;-79
2022/05/05 12:06:49;;;;;;;12.50;6.93;;;;;;;;;;4994348;28;20065;-78
2022/05/05 12:09:15;;;;;;;12.35;7.63;;;;;;;;;;4977346;28;20595;-79
2022/05/05 12:11:42;;;;;;;13.85;7.47;;;;;;;;;;4994103;28;20052;-79
2022/05/05 12:14:09;;;;;;;18.23;8.18;;;;;;;;;;5027393;28;20026;-78
2022/05/05 12:16:35;;;;;;;9.70;6.82;;;;;;;;;;5043345;28;20046;-79
2022/05/05 12:19:01;;;;;;;9.52;6.72;;;;;;;;;;5027219;28;20428;-78
2022/05/05 12:21:27;;;;;;;9.45;7.03;;;;;;;;;;5027129;28;20451;-78
2022/05/05 12:24:02;;;;;;;10.40;6.72;;;;;;;;;;5009946;28;20045;-78
2022/05/05 12:26:35;;;;;;;10.70;7.55;;;;;;;;;;5026436;28;20049;-82
2022/05/05 12:29:01;;;;;;;12.40;6.72;;;;;;;;;;5026854;28;20128;-78
2022/05/05 12:31:29;;;;;;;14.93;6.88;;;;;;;;;;5026861;28;20464;-78
2022/05/05 12:33:55;;;;;;;9.90;6.30;;;;;;;;;;4995060;28;20026;-78
2022/05/05 12:36:28;;;;;;;11.18;6.13;;;;;;;;;;5027351;28;20050;-79
2022/05/05 12:39:12;;;;;;;11.90;7.18;;;;;;;;;;5027154;28;20034;-79
2022/05/05 12:41:37;;;;;;;11.25;6.63;;;;;;;;;;5023139;28;20121;-79
2022/05/05 12:44:09;;;;;;;14.93;5.80;;;;;;;;;;4990898;28;20038;-79
2022/05/05 12:46:35;;;;;;;12.73;6.78;;;;;;;;;;5023475;28;20058;-79
2022/05/05 12:49:00;;;;;;;9.77;6.43;;;;;;;;;;4990348;28;20480;-78
2022/05/05 12:51:34;;;;;;;8.27;6.25;;;;;;;;;;5007048;28;20043;-79
2022/05/05 12:59:36;;;;;;;15.02;6.28;;;;;;;;;;5004541;28;20497;-80
2022/05/05 13:02:02;;;;;;;12.50;6.15;;;;;;;;;;4991769;28;20034;-79
2022/05/05 13:04:27;;;;;;;12.95;6.80;;;;;;;;;;5013701;28;20057;-79
2022/05/05 13:06:53;;;;;;;16.35;6.28;;;;;;;;;;4995276;28;20049;-80
2022/05/05 13:09:19;;;;;;;10.38;5.95;;;;;;;;;;4958310;28;20412;-79
2022/05/05 13:11:46;;;;;;;12.15;7.18;;;;;;;;;;5025973;28;20152;-79
2022/05/05 13:14:12;;;;;;;12.15;6.78;;;;;;;;;;5026974;28;20030;-79
2022/05/05 13:16:38;;;;;;;14.38;6.47;;;;;;;;;;5010434;28;20066;-80
2022/05/05 13:19:05;;;;;;;11.98;6.32;;;;;;;;;;5010191;28;20049;-80
2022/05/05 13:21:33;;;;;;;10.40;6.03;;;;;;;;;;5025694;28;20042;-79
2022/05/05 13:23:59;;;;;;;17.25;7.70;;;;;;;;;;5010512;28;20037;-79
2022/05/05 13:26:24;;;;;;;14.57;6.43;;;;;;;;;;5009537;28;20038;-79
2022/05/05 13:28:50;;;;;;;14.32;6.43;;;;;;;;;;4992668;28;20026;-79
2022/05/05 13:31:15;;;;;;;19.42;6.90;;;;;;;;;;5008790;28;20058;-78
2022/05/05 13:33:41;;;;;;;17.77;6.97;;;;;;;;;;5009367;28;20046;-80
2022/05/05 13:36:07;;;;;;;20.13;6.78;;;;;;;;;;5027713;28;20120;-80
2022/05/05 13:38:32;;;;;;;13.00;6.20;;;;;;;;;;5012944;28;20134;-80
2022/05/05 13:40:58;;;;;;;11.07;5.80;;;;;;;;;;5029716;28;20041;-79
2022/05/05 13:43:24;;;;;;;13.27;6.22;;;;;;;;;;4981176;28;20121;-79
2022/05/05 13:45:49;;;;;;;13.82;6.03;;;;;;;;;;4981026;28;20066;-80
2022/05/05 13:48:15;;;;;;;14.95;6.90;;;;;;;;;;4996883;28;20109;-79
2022/05/05 13:50:40;;;;;;;12.60;6.93;;;;;;;;;;4980333;28;20124;-79
2022/05/05 13:53:06;;;;;;;14.25;6.35;;;;;;;;;;4996746;28;20034;-80
2022/05/05 13:55:33;;;;;;;10.20;6.18;;;;;;;;;;4996703;28;20037;-80
2022/05/05 13:58:02;;;;;;;12.65;6.47;;;;;;;;;;4997039;28;20045;-80
2022/05/05 14:00:27;;;;;;;14.75;6.22;;;;;;;;;;4980516;28;20092;-81
2022/05/05 14:02:53;;;;;;;19.67;8.57;;;;;;;;;;5013322;28;20030;-81
2022/05/05 14:05:19;;;;;;;11.07;6.97;;;;;;;;;;5028883;28;20034;-81
2022/05/05 14:13:12;;;;;;;11.95;6.10;;;;;;;;;;5007254;28;20034;-81
2022/05/05 14:15:38;;;;;;;10.27;6.15;;;;;;;;;;5003329;28;20956;-81
2022/05/05 14:18:05;;;;;;;10.25;7.43;;;;;;;;;;4976429;28;20504;-81
2022/05/05 14:20:31;;;;;;;12.27;6.00;;;;;;;;;;4993055;28;20043;-81
2022/05/05 14:22:56;;;;;;;9.82;6.50;;;;;;;;;;4976832;28;20081;-81
2022/05/05 14:25:22;;;;;;;12.93;7.38;;;;;;;;;;4992802;28;20508;-81
2022/05/05 14:27:47;;;;;;;41.78;12.00;;;;;;;;;;4976902;28;20037;-81
2022/05/05 14:30:13;;;;;;;16.10;7.95;;;;;;;;;;4997073;28;20045;-81
2022/05/05 14:32:39;;;;;;;16.10;6.95;;;;;;;;;;4992984;28;20045;-80
2022/05/05 14:35:05;;;;;;;12.70;7.07;;;;;;;;;;4992282;28;20030;-81
2022/05/05 14:37:30;;;;;;;20.83;7.63;;;;;;;;;;5007370;28;20034;-80
2022/05/05 14:39:56;;;;;;;11.02;6.20;;;;;;;;;;4995618;28;20164;-80
2022/05/05 14:42:21;;;;;;;9.77;5.25;;;;;;;;;;4980113;28;20443;-81
2022/05/05 14:44:47;;;;;;;13.77;5.97;;;;;;;;;;4979653;28;20037;-83
2022/05/05 14:47:12;;;;;;;12.57;6.15;;;;;;;;;;4978570;28;20038;-81
2022/05/05 14:49:37;;;;;;;11.60;5.80;;;;;;;;;;5011117;28;20436;-80
2022/05/05 14:52:07;;;;;;;11.20;6.10;;;;;;;;;;4995533;28;20508;-80
2022/05/05 14:54:33;;;;;;;10.85;6.05;;;;;;;;;;5012220;28;20413;-80
2022/05/05 14:56:58;;;;;;;13.13;5.53;;;;;;;;;;5020798;28;20037;-80
2022/05/05 14:59:24;;;;;;;8.27;5.50;;;;;;;;;;4979728;28;20066;-82
2022/05/05 15:01:49;;;;;;;10.77;5.50;;;;;;;;;;4995791;28;20033;-82
2022/05/05 15:04:15;;;;;;;10.00;5.10;;;;;;;;;;4998192;28;20034;-83
2022/05/05 15:06:40;;;;;;;12.75;5.30;;;;;;;;;;5017431;28;20037;-81
2022/05/05 15:09:06;;;;;;;13.60;6.13;;;;;;;;;;4991510;28;20402;-81
2022/05/05 15:11:35;;;;;;;10.05;5.40;;;;;;;;;;5008236;28;20030;-81
2022/05/05 15:14:00;;;;;;;8.38;5.25;;;;;;;;;;5008121;28;20058;-81
2022/05/05 15:16:25;;;;;;;9.00;5.40;;;;;;;;;;4995407;28;20064;-81
2022/05/05 15:18:51;;;;;;;10.57;4.38;;;;;;;;;;5010905;28;20056;-81
2022/05/05 15:21:16;;;;;;;9.80;4.35;;;;;;;;;;5026376;28;20416;-82
2022/05/05 15:23:42;;;;;;;7.70;4.43;;;;;;;;;;4994388;28;20440;-81
2022/05/05 15:26:08;;;;;;;8.25;4.60;;;;;;;;;;5011541;28;20515;-81
2022/05/05 15:28:33;;;;;;;9.82;4.97;;;;;;;;;;5011712;28;20041;-81
2022/05/05 15:31:06;;;;;;;7.05;4.15;;;;;;;;;;5011317;28;20033;-81